Time;durP1;ratioP1;P1;durP2;ratioP2;P2;SDS_P1;SDS_P2;PMS_P1;PMS_P2;Temp;Humidity;BMP_temperature;BMP_pressure;BME280_temperature;BME280_humidity;BME280_pressure;Samples;Min_cycle;Max_cycle;Signal;HPM_P1;HPM_P2
2021/04/01 00:02:05;;;;;;;5.10;3.60;;;;;;;16.32;39.83;95958.22;4973253;28;20204;-82
2021/04/01 00:04:31;;;;;;;4.80;3.80;;;;;;;16.30;39.56;95955.81;4973684;28;20236;-82
2021/04/01 00:06:57;;;;;;;7.90;3.92;;;;;;;16.26;40.01;95951.22;4973739;28;20242;-82
2021/04/01 00:09:24;;;;;;;6.63;3.80;;;;;;;16.24;39.92;95948.81;4973279;28;20231;-83
2021/04/01 00:11:49;;;;;;;5.50;3.88;;;;;;;16.20;39.97;95945.03;4973685;28;20248;-82
2021/04/01 00:14:19;;;;;;;6.45;3.60;;;;;;;16.14;40.19;95946.66;4972918;28;20196;-81
2021/04/01 00:16:45;;;;;;;8.00;3.85;;;;;;;16.04;40.72;95946.25;4973219;28;20260;-82
2021/04/01 00:19:12;;;;;;;6.75;3.80;;;;;;;16.02;40.85;95934.47;4970975;28;20223;-82
2021/04/01 00:21:38;;;;;;;7.07;3.97;;;;;;;16.04;40.61;95935.84;4972209;28;20239;-82
2021/04/01 00:24:04;;;;;;;6.97;3.00;;;;;;;16.04;40.51;95943.66;4972582;28;20895;-82
2021/04/01 00:26:30;;;;;;;6.72;4.00;;;;;;;15.97;41.29;95929.84;4972724;28;20227;-82
2021/04/01 00:28:56;;;;;;;5.18;3.25;;;;;;;15.92;41.25;95942.66;4974081;28;20222;-82
2021/04/01 00:31:23;;;;;;;8.47;3.80;;;;;;;15.81;41.49;95938.06;4973224;28;20581;-82
2021/04/01 00:33:49;;;;;;;5.43;3.40;;;;;;;15.80;41.61;95939.06;4973030;28;20231;-82
2021/04/01 00:36:16;;;;;;;9.77;4.03;;;;;;;15.82;41.45;95940.47;4972550;28;20279;-82
2021/04/01 00:38:42;;;;;;;10.33;3.50;;;;;;;15.82;41.77;95939.66;4972433;28;20295;-81
2021/04/01 00:41:10;;;;;;;6.18;3.70;;;;;;;15.77;41.63;95931.69;4972383;28;20219;-81
2021/04/01 00:43:36;;;;;;;8.85;3.88;;;;;;;15.73;41.92;95926.09;4968922;28;20282;-81
2021/04/01 00:46:02;;;;;;;5.33;3.60;;;;;;;15.72;42.09;95921.09;4972388;28;20307;-81
2021/04/01 00:48:29;;;;;;;7.97;3.90;;;;;;;15.75;41.79;95918.13;4972437;28;20228;-80
2021/04/01 00:50:55;;;;;;;6.53;3.33;;;;;;;15.76;42.24;95923.09;4971949;28;20228;-81
2021/04/01 00:53:21;;;;;;;8.33;3.50;;;;;;;15.76;41.69;95925.72;4972267;28;20299;-79
2021/04/01 00:55:47;;;;;;;3.90;3.10;;;;;;;15.80;42.19;95923.47;4972576;28;20204;-80
2021/04/01 00:58:13;;;;;;;6.13;3.63;;;;;;;15.84;41.75;95922.88;4972613;28;20224;-81
2021/04/01 01:00:39;;;;;;;4.27;3.13;;;;;;;15.88;41.70;95928.47;4971862;28;20228;-80
2021/04/01 01:03:06;;;;;;;4.78;3.35;;;;;;;15.86;41.55;95920.09;4971986;28;20232;-81
2021/04/01 01:05:35;;;;;;;5.50;3.27;;;;;;;15.83;41.83;95926.47;4972608;28;20286;-80
2021/04/01 01:08:02;;;;;;;5.17;3.33;;;;;;;15.78;42.06;95925.47;4973350;28;20370;-81
2021/04/01 01:10:31;;;;;;;6.40;3.33;;;;;;;15.79;42.08;95924.47;4972452;28;20232;-80
2021/04/01 01:12:58;;;;;;;5.40;3.60;;;;;;;15.80;42.11;95926.06;4973102;28;20235;-81
2021/04/01 01:15:24;;;;;;;5.03;3.33;;;;;;;15.80;42.12;95923.47;4976445;28;20262;-82
2021/04/01 01:17:51;;;;;;;7.67;3.60;;;;;;;15.80;42.52;95926.88;4975920;28;20238;-80
2021/04/01 01:20:20;;;;;;;8.63;4.10;;;;;;;15.78;42.18;95921.09;4956181;29;20750;-80
2021/04/01 01:22:49;;;;;;;6.28;3.60;;;;;;;15.79;42.11;95921.88;4957060;29;20201;-82
2021/04/01 01:25:17;;;;;;;5.10;3.57;;;;;;;15.79;42.33;95912.28;4956768;29;20615;-81
2021/04/01 01:27:43;;;;;;;7.37;3.63;;;;;;;15.79;41.93;95911.50;4956975;29;20240;-81
2021/04/01 01:30:13;;;;;;;4.90;3.50;;;;;;;15.76;42.41;95909.31;4956598;29;20229;-81
2021/04/01 01:32:42;;;;;;;5.93;3.67;;;;;;;15.74;42.36;95911.31;4956512;29;20287;-80
2021/04/01 01:35:16;;;;;;;4.82;3.13;;;;;;;15.67;43.07;95906.13;4957256;29;20243;-80
2021/04/01 01:37:51;;;;;;;4.22;3.15;;;;;;;15.64;42.68;95908.31;4956871;29;20251;-82
2021/04/01 01:40:19;;;;;;;7.10;3.23;;;;;;;15.64;42.09;95903.13;4956510;29;20224;-79
2021/04/01 01:42:45;;;;;;;4.80;3.63;;;;;;;15.62;42.98;95911.09;4968655;28;20228;-82
2021/04/01 01:45:12;;;;;;;7.43;3.60;;;;;;;15.56;43.03;95909.31;4975356;28;20239;-82
2021/04/01 01:47:38;;;;;;;3.53;2.70;;;;;;;15.56;42.88;95905.94;4975710;28;20232;-81
2021/04/01 01:50:06;;;;;;;5.53;3.63;;;;;;;15.49;42.80;95901.50;4975751;28;20204;-80
2021/04/01 01:52:32;;;;;;;3.83;3.15;;;;;;;15.43;43.43;95904.06;4975109;28;20211;-80
2021/04/01 01:54:58;;;;;;;5.67;3.67;;;;;;;15.43;43.28;95898.88;4975203;28;20238;-79
2021/04/01 01:57:25;;;;;;;6.10;3.03;;;;;;;15.39;42.83;95898.50;5029900;23;20226;-80
2021/04/01 01:59:51;;;;;;;3.83;3.00;;;;;;;15.43;43.25;95891.91;5034342;28;20241;-82
2021/04/01 02:02:17;;;;;;;7.50;3.40;;;;;;;15.46;43.26;95894.09;5034707;28;20712;-81
2021/04/01 02:04:43;;;;;;;12.27;3.57;;;;;;;15.47;42.91;95897.50;5034834;28;20225;-81
2021/04/01 02:07:09;;;;;;;9.43;3.40;;;;;;;15.44;43.01;95887.50;5033892;28;20233;-80
2021/04/01 02:09:35;;;;;;;6.32;2.90;;;;;;;15.32;43.14;95895.09;5034202;28;20288;-80
2021/04/01 02:12:01;;;;;;;6.70;3.40;;;;;;;15.29;43.40;95892.91;5034800;28;20225;-80
2021/04/01 02:14:28;;;;;;;5.67;2.97;;;;;;;15.30;43.50;95886.72;5034276;28;20202;-80
2021/04/01 02:16:54;;;;;;;8.13;3.20;;;;;;;15.33;43.26;95890.72;5034247;28;20373;-81
2021/04/01 02:19:20;;;;;;;9.17;3.30;;;;;;;15.35;43.41;95888.72;5033847;28;20214;-79
2021/04/01 02:21:46;;;;;;;4.23;3.13;;;;;;;15.33;43.20;95885.53;5034576;28;20256;-80
2021/04/01 02:24:12;;;;;;;6.07;3.10;;;;;;;15.37;42.99;95886.72;5033731;28;20253;-80
2021/04/01 02:26:38;;;;;;;6.90;2.97;;;;;;;15.31;43.34;95884.91;5032757;28;20241;-81
2021/04/01 02:29:04;;;;;;;5.03;2.83;;;;;;;15.24;43.39;95878.91;5032138;28;20268;-81
2021/04/01 02:31:31;;;;;;;5.23;3.43;;;;;;;15.22;43.27;95879.09;5033406;28;20213;-81
2021/04/01 02:33:57;;;;;;;6.40;3.80;;;;;;;15.20;43.46;95883.72;5032946;28;20224;-79
2021/04/01 02:36:23;;;;;;;4.77;3.03;;;;;;;15.19;43.49;95884.72;5033567;28;20230;-81
2021/04/01 02:38:49;;;;;;;5.00;3.27;;;;;;;15.11;43.52;95879.69;5033387;28;20725;-81
2021/04/01 02:41:15;;;;;;;4.87;2.73;;;;;;;15.12;43.78;95874.31;5032888;28;20198;-81
2021/04/01 02:43:41;;;;;;;3.83;3.40;;;;;;;15.09;43.28;95872.13;5016856;28;20305;-81
2021/04/01 02:46:08;;;;;;;5.47;3.30;;;;;;;15.07;43.58;95871.50;5015465;28;20750;-80
2021/04/01 02:48:35;;;;;;;6.30;3.17;;;;;;;15.00;43.87;95867.31;5033642;28;20349;-81
2021/04/01 02:51:01;;;;;;;5.73;3.03;;;;;;;15.01;43.83;95869.69;5032893;28;20222;-80
2021/04/01 02:53:27;;;;;;;5.73;3.43;;;;;;;14.96;43.68;95871.31;5033117;28;20241;-80
2021/04/01 02:55:53;;;;;;;6.33;3.37;;;;;;;14.98;43.71;95864.94;5033796;28;20202;-82
2021/04/01 02:58:19;;;;;;;6.23;3.43;;;;;;;15.02;43.96;95871.28;5033102;28;20564;-81
2021/04/01 03:00:45;;;;;;;5.43;3.03;;;;;;;15.01;43.77;95874.88;5033830;28;20441;-81
2021/04/01 03:03:16;;;;;;;6.67;3.07;;;;;;;14.97;43.54;95867.72;5032874;28;20615;-82
2021/04/01 03:05:43;;;;;;;5.30;3.57;;;;;;;14.93;43.65;95871.69;5033016;28;20308;-80
2021/04/01 03:08:10;;;;;;;5.40;3.00;;;;;;;14.95;43.39;95873.09;5032835;28;20218;-80
2021/04/01 03:10:36;;;;;;;6.60;3.40;;;;;;;14.94;43.76;95873.28;5033207;28;20206;-82
2021/04/01 03:13:02;;;;;;;7.87;3.60;;;;;;;14.91;43.77;95861.50;5033958;28;20314;-81
2021/04/01 03:15:29;;;;;;;4.70;2.90;;;;;;;14.88;44.11;95866.28;5033556;28;20230;-82
2021/04/01 03:17:55;;;;;;;5.60;3.23;;;;;;;14.88;43.79;95861.09;5033080;28;20716;-80
2021/04/01 03:20:21;;;;;;;8.03;3.40;;;;;;;14.78;43.92;95858.91;5032474;28;20198;-80
2021/04/01 03:22:48;;;;;;;8.80;3.20;;;;;;;14.81;43.76;95864.50;5033263;28;20278;-81
2021/04/01 03:25:15;;;;;;;5.20;3.37;;;;;;;14.76;43.97;95864.28;5032800;28;20237;-82
2021/04/01 03:27:41;;;;;;;7.97;3.07;;;;;;;14.81;44.02;95861.91;5032708;28;20237;-81
2021/04/01 03:30:11;;;;;;;4.67;2.70;;;;;;;14.77;43.71;95872.84;5032229;28;20241;-81
2021/04/01 03:32:38;;;;;;;8.30;3.17;;;;;;;14.77;43.83;95868.47;5032332;28;20238;-80
2021/04/01 03:35:06;;;;;;;7.80;3.10;;;;;;;14.80;43.59;95867.28;5033290;28;20209;-80
2021/04/01 03:37:32;;;;;;;7.60;3.20;;;;;;;14.78;43.63;95866.69;5031888;28;20226;-80
2021/04/01 03:40:00;;;;;;;4.80;2.80;;;;;;;14.81;43.62;95855.91;5032008;28;20222;-81
2021/04/01 03:42:26;;;;;;;7.30;3.30;;;;;;;14.81;43.39;95868.88;5032616;28;20229;-81
2021/04/01 03:44:52;;;;;;;5.80;3.10;;;;;;;14.80;43.39;95870.66;5032162;28;20323;-80
2021/04/01 03:47:18;;;;;;;5.60;2.60;;;;;;;14.84;43.12;95864.06;5032758;28;20222;-80
2021/04/01 03:49:44;;;;;;;4.57;2.50;;;;;;;14.82;43.28;95862.66;5032652;28;20878;-79
2021/04/01 03:52:10;;;;;;;5.00;2.80;;;;;;;14.88;43.12;95863.69;5032312;28;20230;-80
2021/04/01 03:54:36;;;;;;;7.37;3.03;;;;;;;14.89;43.28;95867.88;5032011;28;20720;-81
2021/04/01 03:57:04;;;;;;;4.10;2.80;;;;;;;14.86;43.02;95866.47;5032182;28;20794;-80
2021/04/01 03:59:34;;;;;;;9.70;2.80;;;;;;;14.83;42.54;95865.06;5031911;28;20666;-81
2021/04/01 04:04:52;;;;;;;7.50;2.87;;;;;;;14.77;42.68;95863.28;5030926;28;20276;-80
2021/04/01 04:10:21;;;;;;;3.53;2.33;;;;;;;14.82;42.63;95852.31;5031553;28;20237;-82
2021/04/01 04:15:28;;;;;;;4.30;2.70;;;;;;;14.85;42.71;95850.13;5029276;28;20221;-80
2021/04/01 04:17:54;;;;;;;7.83;2.13;;;;;;;14.90;42.09;95848.75;5030959;28;20222;-81
2021/04/01 04:20:20;;;;;;;5.60;2.73;;;;;;;14.87;41.98;95847.34;5031179;28;20202;-81
2021/04/01 04:22:50;;;;;;;7.37;2.50;;;;;;;14.91;42.29;95845.94;5031348;28;20216;-81
2021/04/01 04:25:16;;;;;;;4.07;2.57;;;;;;;14.84;42.35;95840.75;5031156;28;20257;-80
2021/04/01 04:28:02;;;;;;;6.80;2.77;;;;;;;14.84;42.60;95845.94;5030843;28;20230;-81
2021/04/01 04:30:29;;;;;;;7.47;2.70;;;;;;;14.88;42.02;95846.34;5030525;28;20284;-82
2021/04/01 04:32:56;;;;;;;8.03;2.70;;;;;;;14.87;42.11;95844.75;5030467;28;20299;-81
2021/04/01 04:35:22;;;;;;;5.87;2.73;;;;;;;14.88;42.19;95846.34;5030163;28;20213;-81
2021/04/01 04:37:48;;;;;;;5.10;2.60;;;;;;;14.86;41.98;95845.75;5030607;28;20259;-81
2021/04/01 04:40:15;;;;;;;8.73;2.60;;;;;;;14.87;42.27;95847.34;5029946;28;20252;-81
2021/04/01 04:42:41;;;;;;;5.67;2.63;;;;;;;14.83;42.41;95846.94;5028439;28;20948;-81
2021/04/01 04:45:11;;;;;;;4.13;2.63;;;;;;;14.84;42.17;95847.72;5028858;28;20234;-81
2021/04/01 04:47:38;;;;;;;8.57;3.10;;;;;;;14.82;41.90;95844.53;5021823;28;20222;-81
2021/04/01 04:50:05;;;;;;;5.60;2.60;;;;;;;14.81;41.94;95848.16;5029808;28;20634;-81
2021/04/01 04:52:33;;;;;;;6.10;2.67;;;;;;;14.75;42.13;95849.72;5029693;28;20226;-82
2021/04/01 04:55:01;;;;;;;7.33;2.83;;;;;;;14.87;42.57;95852.53;5031050;28;20836;-83
2021/04/01 04:57:32;;;;;;;5.83;2.90;;;;;;;15.01;42.42;95856.72;5029718;28;20279;-81
2021/04/01 05:00:10;;;;;;;6.60;2.50;;;;;;;15.01;41.44;95851.53;5015573;28;20291;-80
2021/04/01 05:05:23;;;;;;;5.03;2.67;;;;;;;14.91;41.74;95853.72;5023182;28;20244;-80
2021/04/01 05:07:49;;;;;;;5.27;2.70;;;;;;;14.80;41.87;95857.72;5026863;28;20225;-81
2021/04/01 05:10:14;;;;;;;10.00;2.63;;;;;;;14.75;42.26;95867.06;5029715;28;20257;-81
2021/04/01 05:12:40;;;;;;;9.30;2.47;;;;;;;14.79;42.00;95860.50;5012271;28;20590;-80
2021/04/01 05:15:08;;;;;;;6.93;2.60;;;;;;;14.84;41.80;95860.69;5010531;28;20304;-80
2021/04/01 05:17:34;;;;;;;8.53;2.57;;;;;;;14.75;41.49;95861.88;5010174;28;20237;-80
2021/04/01 05:20:03;;;;;;;5.93;2.40;;;;;;;14.75;41.45;95864.47;5010156;28;20289;-80
2021/04/01 05:22:38;;;;;;;6.77;2.60;;;;;;;14.70;41.61;95861.66;5009749;28;20227;-81
2021/04/01 05:25:06;;;;;;;6.13;2.93;;;;;;;14.73;41.95;95856.88;5010008;28;20233;-81
2021/04/01 05:27:35;;;;;;;7.80;2.70;;;;;;;14.80;41.80;95851.72;5010539;28;20233;-81
2021/04/01 05:30:02;;;;;;;3.90;2.87;;;;;;;14.90;41.53;95848.75;5017899;28;20225;-81
2021/04/01 05:32:31;;;;;;;4.57;2.53;;;;;;;14.84;41.72;95850.31;5030121;28;20206;-80
2021/04/01 05:34:59;;;;;;;7.57;3.03;;;;;;;14.88;41.12;95851.53;5031054;28;20670;-83
2021/04/01 05:37:27;;;;;;;11.13;2.83;;;;;;;14.93;41.27;95853.53;5029843;28;20229;-81
2021/04/01 05:39:54;;;;;;;6.07;2.90;;;;;;;14.98;40.84;95853.75;5029415;28;20226;-80
2021/04/01 05:42:22;;;;;;;9.37;3.00;;;;;;;15.01;40.84;95859.31;5030086;28;20571;-80
2021/04/01 05:44:50;;;;;;;5.07;2.70;;;;;;;15.02;40.64;95857.53;5029092;28;20233;-81
2021/04/01 05:47:20;;;;;;;9.30;2.80;;;;;;;15.08;41.01;95864.53;5029281;28;20333;-83
2021/04/01 06:03:53;;;;;;;5.13;2.77;;;;;;;15.24;39.76;95865.94;5030580;28;20222;-83
2021/04/01 06:06:24;;;;;;;5.20;2.43;;;;;;;15.21;39.41;95872.31;5033510;28;20717;-81
2021/04/01 06:08:52;;;;;;;5.70;2.40;;;;;;;15.30;39.37;95868.56;5013620;28;20222;-80
2021/04/01 06:11:21;;;;;;;5.53;2.40;;;;;;;15.35;39.68;95873.16;5013167;28;20567;-81
2021/04/01 06:14:06;;;;;;;5.00;2.33;;;;;;;15.40;39.28;95876.72;5013409;28;20206;-82
2021/04/01 06:16:35;;;;;;;5.40;2.40;;;;;;;15.53;39.38;95881.13;5031640;28;20645;-81
2021/04/01 06:19:05;;;;;;;5.37;2.10;;;;;;;15.57;39.01;95884.97;5033302;28;20225;-81
2021/04/01 06:21:42;;;;;;;6.80;2.60;;;;;;;15.59;38.97;95877.00;5033020;28;20229;-81
2021/04/01 06:24:22;;;;;;;6.07;2.10;;;;;;;15.60;38.98;95883.75;5018301;28;20718;-82
2021/04/01 06:27:01;;;;;;;4.73;2.00;;;;;;;15.71;39.19;95883.16;5013716;28;20325;-82
2021/04/01 06:29:29;;;;;;;5.43;2.10;;;;;;;15.79;38.35;95891.53;5015356;28;20194;-81
2021/04/01 06:32:00;;;;;;;6.03;2.20;;;;;;;15.83;38.57;95884.13;5022988;28;20202;-81
2021/04/01 06:34:33;;;;;;;6.57;2.30;;;;;;;15.95;38.73;95887.75;5029306;28;20218;-81
2021/04/01 06:36:59;;;;;;;7.70;2.70;;;;;;;16.07;38.67;95890.50;5027946;28;20226;-82
2021/04/01 06:39:25;;;;;;;7.97;2.43;;;;;;;16.22;38.64;95888.47;5018832;28;20710;-81
2021/04/01 06:42:18;;;;;;;10.80;2.83;;;;;;;16.34;37.88;95886.84;5028287;28;20225;-82
2021/04/01 06:45:07;;;;;;;6.30;2.47;;;;;;;16.49;37.78;95887.41;5002607;28;20294;-84
2021/04/01 06:47:40;;;;;;;5.78;2.15;;;;;;;16.61;37.93;95881.53;5002265;28;20231;-84
2021/04/01 06:50:09;;;;;;;7.43;2.53;;;;;;;16.72;37.21;95881.75;5029316;28;20206;-84
2021/04/01 06:52:40;;;;;;;4.35;2.08;;;;;;;16.92;37.08;95886.84;5032635;28;20232;-84
2021/04/01 06:55:22;;;;;;;7.68;2.60;;;;;;;16.99;37.14;95886.78;5031468;28;20226;-80
2021/04/01 06:58:06;;;;;;;4.07;2.45;;;;;;;17.05;36.59;95886.75;5030699;28;20310;-80
2021/04/01 07:00:45;;;;;;;7.65;2.40;;;;;;;17.23;36.61;95897.25;5032381;28;20232;-81
2021/04/01 07:03:14;;;;;;;9.60;2.78;;;;;;;17.29;36.80;95887.81;5033055;28;20600;-81
2021/04/01 07:05:49;;;;;;;7.68;2.85;;;;;;;17.40;36.55;95881.13;5033157;28;20291;-81
2021/04/01 07:08:18;;;;;;;7.93;2.65;;;;;;;17.65;36.49;95883.78;5032148;28;20221;-81
2021/04/01 07:10:50;;;;;;;8.30;2.63;;;;;;;17.76;36.68;95885.66;5032117;28;20217;-81
2021/04/01 07:13:21;;;;;;;9.57;3.20;;;;;;;17.75;36.76;95882.25;5032157;28;20279;-81
2021/04/01 07:15:51;;;;;;;9.60;3.50;;;;;;;17.79;36.30;95885.25;5032333;28;20254;-84
2021/04/01 07:18:32;;;;;;;6.60;2.45;;;;;;;17.93;36.37;95884.91;5032430;28;20233;-82
2021/04/01 07:35:37;;;;;;;6.55;2.45;;;;;;;18.79;34.52;95896.25;5012785;28;20218;-83
2021/04/01 07:46:34;;;;;;;7.00;2.80;;;;;;;19.35;32.98;95884.66;5012176;28;20288;-83
2021/04/01 07:49:03;;;;;;;6.95;2.67;;;;;;;19.53;32.77;95885.41;5016111;28;20944;-83
2021/04/01 07:51:44;;;;;;;7.93;3.33;;;;;;;19.67;32.90;95885.97;5032217;28;20222;-83
2021/04/01 07:54:11;;;;;;;6.85;2.75;;;;;;;19.81;32.78;95884.75;5031542;28;20226;-82
2021/04/01 07:56:41;;;;;;;11.40;3.20;;;;;;;19.98;32.47;95884.88;5031617;28;20226;-83
2021/04/01 08:02:20;;;;;;;15.18;4.18;;;;;;;20.41;32.04;95883.69;5028746;28;20226;-82
2021/04/01 08:04:47;;;;;;;7.30;3.20;;;;;;;20.66;31.99;95889.44;5032766;28;20218;-81
2021/04/01 08:07:15;;;;;;;14.13;3.75;;;;;;;20.80;31.83;95892.59;5032185;28;20230;-81
2021/04/01 08:09:47;;;;;;;11.85;3.92;;;;;;;20.90;31.49;95882.31;5031933;28;20908;-82
2021/04/01 08:12:24;;;;;;;12.05;4.38;;;;;;;20.92;31.53;95877.66;5032093;28;20237;-81
2021/04/01 08:14:55;;;;;;;7.75;4.45;;;;;;;20.92;31.28;95883.69;5031447;28;20705;-80
2021/04/01 08:17:27;;;;;;;7.93;4.18;;;;;;;21.07;31.42;95882.38;5031933;28;20248;-81
2021/04/01 08:19:56;;;;;;;9.50;4.53;;;;;;;21.30;30.56;95877.84;5032254;28;20237;-82
2021/04/01 08:22:24;;;;;;;10.63;4.90;;;;;;;21.52;30.44;95871.91;5030916;28;20226;-82
2021/04/01 08:24:53;;;;;;;11.43;4.30;;;;;;;21.58;30.04;95876.97;5031287;28;20788;-81
2021/04/01 08:27:25;;;;;;;12.00;5.32;;;;;;;21.67;30.18;95874.75;5031537;28;20230;-82
2021/04/01 08:35:28;;;;;;;9.85;4.70;;;;;;;22.11;29.54;95867.84;5011976;28;20201;-84
2021/04/01 08:38:07;;;;;;;8.68;4.93;;;;;;;22.25;29.37;95871.69;5012209;28;20234;-84
2021/04/01 08:40:33;;;;;;;11.82;6.00;;;;;;;22.30;28.81;95874.41;5011295;28;20568;-84
2021/04/01 08:43:33;;;;;;;10.38;5.40;;;;;;;22.56;28.65;95866.81;5011574;28;20261;-85
2021/04/01 08:46:14;;;;;;;9.18;5.85;;;;;;;22.79;28.92;95866.59;5011834;28;20233;-83
2021/04/01 08:49:01;;;;;;;11.68;5.43;;;;;;;23.03;28.70;95864.50;5012064;28;20253;-84
2021/04/01 08:51:43;;;;;;;9.52;5.88;;;;;;;23.20;28.12;95854.66;5011639;28;20756;-84
2021/04/01 08:54:14;;;;;;;9.18;5.28;;;;;;;23.27;28.04;95851.84;5011906;28;20921;-84
2021/04/01 08:56:48;;;;;;;10.48;5.47;;;;;;;23.30;28.14;95848.69;5021467;28;20253;-84
2021/04/01 08:59:23;;;;;;;8.60;6.00;;;;;;;23.49;28.23;95847.28;5031316;28;20263;-83
2021/04/01 09:01:51;;;;;;;10.05;5.72;;;;;;;23.77;27.80;95851.47;5031779;28;20197;-85
2021/04/01 09:04:24;;;;;;;11.40;6.47;;;;;;;23.64;27.46;95847.44;5031107;28;20232;-84
2021/04/01 09:06:52;;;;;;;16.52;6.68;;;;;;;23.43;27.51;95833.31;5031290;28;20234;-85
2021/04/01 09:09:25;;;;;;;10.05;6.22;;;;;;;23.53;27.89;95840.50;5030902;28;20751;-84
2021/04/01 09:11:56;;;;;;;12.70;6.85;;;;;;;23.81;27.88;95838.63;5029160;28;20248;-84
2021/04/01 09:14:26;;;;;;;12.02;6.38;;;;;;;24.05;27.97;95835.31;5031073;28;20194;-84
2021/04/01 09:17:04;;;;;;;11.10;6.07;;;;;;;24.10;26.99;95832.72;5031735;28;20214;-84
2021/04/01 09:19:31;;;;;;;12.30;6.13;;;;;;;24.05;27.06;95826.66;5030292;28;20225;-84
2021/04/01 09:21:58;;;;;;;9.32;5.70;;;;;;;24.22;27.40;95827.28;5030218;28;20230;-84
2021/04/01 09:24:29;;;;;;;10.85;5.88;;;;;;;24.33;26.86;95828.94;5030957;28;20225;-82
2021/04/01 09:26:55;;;;;;;12.43;6.70;;;;;;;24.35;26.80;95828.66;5031011;28;20283;-84
2021/04/01 09:29:22;;;;;;;11.25;6.63;;;;;;;24.40;26.76;95828.69;5030439;28;20256;-83
2021/04/01 09:31:55;;;;;;;12.57;6.18;;;;;;;24.53;26.60;95822.94;5014065;28;20203;-84
2021/04/01 09:34:23;;;;;;;11.85;7.05;;;;;;;24.68;26.36;95824.81;5012134;28;20226;-84
2021/04/01 09:36:50;;;;;;;10.75;5.93;;;;;;;24.80;27.06;95833.31;5015371;28;20234;-84
2021/04/01 09:39:25;;;;;;;11.40;6.65;;;;;;;25.03;26.63;95816.22;5014472;28;20260;-84
2021/04/01 09:41:57;;;;;;;9.93;6.90;;;;;;;25.13;26.14;95824.16;5014964;28;20222;-84
2021/04/01 09:44:23;;;;;;;10.50;5.85;;;;;;;25.27;26.41;95827.06;5014383;28;20219;-83
2021/04/01 09:46:56;;;;;;;12.20;5.88;;;;;;;25.47;25.72;95821.81;5026994;28;20236;-81
2021/04/01 09:49:27;;;;;;;14.23;6.63;;;;;;;25.48;25.47;95818.91;5034613;28;20230;-84
2021/04/01 09:51:55;;;;;;;10.85;6.28;;;;;;;25.51;26.00;95822.84;5034308;28;20230;-84
2021/04/01 09:54:25;;;;;;;9.55;5.90;;;;;;;25.56;25.75;95822.88;5034886;28;20226;-84
2021/04/01 09:56:55;;;;;;;8.50;5.78;;;;;;;25.46;25.37;95821.00;5034723;28;20712;-84
2021/04/01 09:59:25;;;;;;;15.30;6.63;;;;;;;25.62;25.56;95821.81;5034573;28;20202;-85
2021/04/01 10:02:06;;;;;;;17.08;11.90;;;;;;;25.65;25.74;95809.94;5034158;28;20251;-84
2021/04/01 10:04:35;;;;;;;16.58;7.07;;;;;;;25.75;26.57;95813.38;5034469;28;20226;-84
2021/04/01 10:07:13;;;;;;;7.97;5.47;;;;;;;25.98;26.16;95808.59;5034259;28;20234;-85
2021/04/01 10:09:49;;;;;;;7.32;5.22;;;;;;;26.10;25.79;95815.13;5033692;28;20691;-85
2021/04/01 10:12:21;;;;;;;16.27;5.47;;;;;;;26.12;25.55;95804.31;5034012;28;20743;-85
2021/04/01 10:14:54;;;;;;;10.07;5.60;;;;;;;26.14;25.98;95794.28;5034571;28;20310;-85
2021/04/01 10:17:21;;;;;;;11.30;5.40;;;;;;;26.20;25.57;95806.38;5034126;28;20218;-84
2021/04/01 10:19:51;;;;;;;11.27;5.68;;;;;;;26.31;25.89;95797.41;5033930;28;20198;-84
2021/04/01 10:25:17;;;;;;;9.05;5.65;;;;;;;26.25;25.75;95792.38;5027786;28;20257;-84
2021/04/01 10:27:50;;;;;;;11.30;6.00;;;;;;;26.27;25.36;95783.13;5034610;28;20968;-83
2021/04/01 10:30:18;;;;;;;11.93;6.53;;;;;;;26.29;25.62;95773.13;5029317;28;20292;-85
2021/04/01 10:32:51;;;;;;;13.73;6.00;;;;;;;26.32;26.04;95772.59;5014044;28;20248;-84
2021/04/01 10:35:23;;;;;;;9.45;5.35;;;;;;;26.21;25.67;95772.84;5014211;28;20203;-85
2021/04/01 10:37:51;;;;;;;10.75;5.40;;;;;;;26.21;25.67;95763.09;5014611;28;20226;-84
2021/04/01 10:40:19;;;;;;;12.25;5.65;;;;;;;26.26;25.94;95762.28;5013996;28;20234;-84
2021/04/01 10:42:48;;;;;;;8.82;5.60;;;;;;;26.26;26.46;95762.28;5013601;28;20281;-84
2021/04/01 10:45:20;;;;;;;11.30;5.75;;;;;;;26.32;26.72;95753.31;5014556;28;20237;-86
2021/04/01 10:48:17;;;;;;;10.20;4.95;;;;;;;26.40;26.99;95747.44;5033524;28;20313;-84
2021/04/01 10:50:43;;;;;;;7.70;4.50;;;;;;;26.41;25.67;95746.38;5028748;28;20244;-84
2021/04/01 10:53:17;;;;;;;13.93;5.07;;;;;;;26.30;25.76;95755.44;5035972;28;20202;-84
2021/04/01 10:55:43;;;;;;;13.43;7.95;;;;;;;26.23;25.20;95739.06;5034479;28;20220;-84
2021/04/01 10:58:12;;;;;;;9.40;5.18;;;;;;;26.06;25.55;95737.56;5024798;28;20237;-83
2021/04/01 11:00:39;;;;;;;10.63;4.57;;;;;;;25.89;26.05;95733.66;5034430;28;20230;-81
2021/04/01 11:03:09;;;;;;;11.38;5.18;;;;;;;25.96;26.14;95736.81;5033816;28;20241;-84
2021/04/01 11:05:37;;;;;;;8.18;4.90;;;;;;;25.99;25.92;95731.75;5033845;28;20325;-84
2021/04/01 11:08:07;;;;;;;14.15;4.90;;;;;;;26.26;26.46;95720.03;5033404;28;20232;-83
2021/04/01 11:10:35;;;;;;;11.23;5.15;;;;;;;26.21;25.66;95728.78;5032753;28;20226;-84
2021/04/01 11:13:04;;;;;;;7.80;4.72;;;;;;;26.32;25.95;95719.78;5032813;28;20229;-84
2021/04/01 11:15:34;;;;;;;8.10;4.30;;;;;;;26.28;25.43;95715.28;5032763;28;20229;-84
2021/04/01 11:18:03;;;;;;;9.18;4.55;;;;;;;26.35;25.92;95724.53;5033093;28;20221;-84
2021/04/01 11:20:33;;;;;;;9.63;4.68;;;;;;;26.41;25.62;95718.13;5033424;28;20364;-85
2021/04/01 11:23:07;;;;;;;9.60;4.35;;;;;;;26.32;25.36;95700.50;5033733;28;20328;-85
2021/04/01 11:25:35;;;;;;;6.75;3.75;;;;;;;26.22;25.49;95708.44;5032741;28;20779;-85
2021/04/01 11:28:02;;;;;;;13.20;6.93;;;;;;;26.24;26.25;95701.03;5032467;28;20226;-82
2021/04/01 11:30:48;;;;;;;8.15;5.82;;;;;;;26.26;25.32;95705.00;5026360;28;20254;-81
2021/04/01 11:33:15;;;;;;;8.48;3.85;;;;;;;26.20;25.50;95700.78;5012450;28;20231;-81
2021/04/01 11:35:42;;;;;;;13.75;4.28;;;;;;;26.20;25.40;95698.16;5012188;28;20219;-81
2021/04/01 11:38:16;;;;;;;7.63;4.18;;;;;;;26.14;25.53;95692.13;5012943;28;20219;-84
2021/04/01 11:40:53;;;;;;;8.10;4.13;;;;;;;26.16;26.43;95691.88;5013525;28;20217;-85
2021/04/01 11:43:25;;;;;;;9.18;4.63;;;;;;;26.24;26.02;95688.63;5012986;28;20494;-81
2021/04/01 11:45:52;;;;;;;6.25;4.22;;;;;;;26.22;25.76;95688.13;5012815;28;20670;-82
2021/04/01 11:48:18;;;;;;;8.25;4.35;;;;;;;26.38;26.21;95684.34;5013222;28;20230;-81
2021/04/01 11:50:45;;;;;;;9.85;4.00;;;;;;;26.49;25.53;95677.97;5027368;28;20303;-84
2021/04/01 11:53:11;;;;;;;6.20;3.60;;;;;;;26.44;24.88;95682.47;5033882;28;20198;-84
2021/04/01 11:55:47;;;;;;;6.95;3.72;;;;;;;26.34;25.51;95683.34;5032527;28;20317;-84
2021/04/01 11:58:14;;;;;;;7.20;4.63;;;;;;;26.27;25.68;95679.38;5031112;28;20233;-84
2021/04/01 12:00:40;;;;;;;6.78;5.13;;;;;;;26.39;25.40;95683.28;5032204;28;20240;-84
2021/04/01 12:03:09;;;;;;;8.45;3.83;;;;;;;26.54;25.52;95676.34;5032126;28;20230;-84
2021/04/01 12:05:38;;;;;;;7.05;3.75;;;;;;;26.63;24.93;95670.19;5032306;28;20320;-84
2021/04/01 12:08:08;;;;;;;10.20;4.05;;;;;;;26.61;24.88;95679.44;5032148;28;20210;-82
2021/04/01 12:10:40;;;;;;;8.23;4.00;;;;;;;26.62;24.78;95665.97;5031967;28;20291;-81
2021/04/01 12:13:07;;;;;;;5.80;3.67;;;;;;;26.66;24.87;95671.50;5032287;28;20871;-82
2021/04/01 12:15:36;;;;;;;5.88;3.38;;;;;;;26.47;24.47;95658.16;5032041;28;20229;-83
2021/04/01 12:18:06;;;;;;;7.85;3.45;;;;;;;26.36;25.01;95654.78;5032022;28;20230;-82
2021/04/01 12:20:36;;;;;;;5.07;3.30;;;;;;;26.20;24.79;95658.56;5031812;28;20264;-80
2021/04/01 12:23:08;;;;;;;5.25;2.88;;;;;;;26.05;24.69;95648.88;5032448;28;20255;-83
2021/04/01 12:25:39;;;;;;;12.93;6.55;;;;;;;25.95;24.73;95641.03;5032291;28;20728;-84
2021/04/01 12:28:05;;;;;;;22.85;18.45;;;;;;;26.04;25.27;95634.09;5032379;28;20266;-84
2021/04/01 12:30:33;;;;;;;3.65;3.13;;;;;;;25.97;25.39;95633.63;5031496;28;20236;-83
2021/04/01 12:33:10;;;;;;;7.03;3.22;;;;;;;25.86;25.67;95629.44;5031809;28;20253;-83
2021/04/01 12:35:37;;;;;;;5.80;3.20;;;;;;;25.90;25.64;95637.63;5031538;28;20222;-84
2021/04/01 12:38:05;;;;;;;6.20;3.47;;;;;;;26.01;25.68;95631.22;5032379;28;20222;-82
2021/04/01 12:40:38;;;;;;;13.93;3.75;;;;;;;26.11;25.47;95623.25;5031934;28;20233;-83
2021/04/01 12:43:06;;;;;;;12.50;3.53;;;;;;;26.28;25.31;95618.38;5031855;28;20241;-81